Ottumwa Regional Airport
KOTM : now visible

Airfield :











YOU CAN JOIN US ON...

 
LOGIN :

Register | Disclaimer

   EN    FR    IT 

 









Legend :    VFR   Marginal VFR   IFR   Intensive IFR   Very Intensive IFR
Visi :
Ceiling :
>= 8 km
>= 3000ft
5 to 8 km
1000 to 3000 ft
1500m to 5 km
500 to 1000 ft
800 to 1500m
200 to 500 ft
< 800m
< 200 ft
Symbols :   Thunderstorms  Fog  Heavy snow  Heavy precipitations  Wind > 20 kt






- Airport Elevation : 845 ft
- IATA code : OTM


KOTM - Ottumwa Regional

CURRENT METAR :
  • 271253Z AUTO 33007KT 6SM BR OVC005 01/00 A3016 RMK AO2 SLP218 T00060000

EXPIRED METARs :
  • 271153Z AUTO 33008KT 7SM OVC006 01/00 A3013 RMK AO2 SLP210 I6000 T00060000 10011 20000 53005
  • 271053Z AUTO 34006KT 6SM BR OVC005 01/01 A3011 RMK AO2 SLP202 T00110006
  • 271044Z AUTO 34006KT 6SM BR OVC005 01/01 A3012 RMK AO2 T00110006

TAF KOTM
Valid from the 27 at 12:00 until the 28 at 12:00 UTC


271127Z 2712/2812 34006KT P6SM BKN010
TEMPO 2712/2715 3SM BR OVC008
FM271500 30007KT P6SM SCT040
KZAU FIR / North America



MET'MAP, your aeronautical weather chart ! - Copyright ORBIFLY December 2007 - Disclaimer

ORBIFLY MET'MAP TEAM :

Programming & Development : Alexandra Zaïnal
Concept & original design : Baudouin d'Aumeries
Assistance for programming : Marc-Olivier Méhu
Technical & hardware support : Manuel Goepfert

Contact : metmap@orbifly.com




SOURCES & CREDITS :

   NOAA       Earth
Advisory